Terminal Aerodrome Forecast
Issued by NWS

Home | Current Version | Previous Version | Text Only | Print | Product List | Glossary Off
Versions: 1 2 3 4 5 6 7 8 9 10 11 12 13 14 15 16 17 18

000
FTUS43 KTOP 230500
TAFMHK
TAF
KMHK 230520Z 2306/2406 VRB03KT P6SM SKC
      TEMPO 2308/2312 6SM BR SKC
     FM231600 22008KT P6SM BKN250=

USA.gov is the U.S. government's official web portal to all federal, state and local government web resources and services.